Time;durP1;ratioP1;P1;durP2;ratioP2;P2;SDS_P1;SDS_P2;PMS_P1;PMS_P2;Temp;Humidity;BMP_temperature;BMP_pressure;BME280_temperature;BME280_humidity;BME280_pressure;Samples;Min_cycle;Max_cycle;Signal;HPM_P1;HPM_P2
2022/08/12 00:45:13;;;;;;;5.65;4.60;;;;;;;18.16;99.29;102188.75;5039064;28;20042;-81
2022/08/12 00:47:38;;;;;;;6.38;5.00;;;;;;;18.12;99.86;102189.00;5025370;28;20024;-79
2022/08/12 00:50:05;;;;;;;8.27;5.25;;;;;;;18.07;99.41;102185.72;5039297;28;20032;-81
2022/08/12 00:52:32;;;;;;;6.13;4.45;;;;;;;18.01;99.99;102185.09;5024096;28;20047;-81
2022/08/12 00:54:59;;;;;;;5.32;4.35;;;;;;;17.97;100.00;102180.84;5040710;28;20029;-81
2022/08/12 00:57:35;;;;;;;7.63;4.68;;;;;;;17.94;100.00;102181.03;5038065;28;20086;-82
2022/08/12 01:00:07;;;;;;;5.78;4.82;;;;;;;17.89;100.00;102183.06;5038227;28;20040;-82
2022/08/12 01:02:37;;;;;;;5.85;4.90;;;;;;;17.85;100.00;102176.16;5024179;28;20234;-82
2022/08/12 01:13:20;;;;;;;7.30;5.20;;;;;;;17.70;100.00;102176.06;5028830;28;20049;-82
2022/08/12 01:15:49;;;;;;;7.68;5.70;;;;;;;17.69;100.00;102176.16;5038265;28;20032;-82
2022/08/12 01:18:15;;;;;;;6.93;5.88;;;;;;;17.65;100.00;102170.06;5034340;28;20344;-82
2022/08/12 01:21:16;;;;;;;7.63;5.57;;;;;;;17.60;100.00;102180.19;5009126;28;20025;-81
2022/08/12 01:24:20;;;;;;;7.28;5.97;;;;;;;17.55;100.00;102174.22;5009076;28;20387;-82
2022/08/12 01:26:46;;;;;;;;;;;;;;;17.53;100.00;102186.84;5014901;28;20041;-81
2022/08/12 01:29:14;;;;;;;7.80;5.85;;;;;;;17.47;100.00;102175.50;5038705;28;20023;-82
2022/08/12 01:31:42;;;;;;;8.55;6.40;;;;;;;17.44;100.00;102182.81;5036722;28;20028;-82
2022/08/12 01:34:10;;;;;;;11.48;6.95;;;;;;;17.39;100.00;102175.06;4999152;28;20392;-82
2022/08/12 01:36:42;;;;;;;8.25;6.75;;;;;;;17.36;100.00;102185.91;5037300;28;20040;-82
2022/08/12 01:39:09;;;;;;;9.48;6.72;;;;;;;17.34;100.00;102187.81;5023295;28;20569;-82
2022/08/12 01:41:51;;;;;;;10.45;7.15;;;;;;;17.31;100.00;102180.81;5030314;28;20039;-82
2022/08/12 01:44:18;;;;;;;8.55;6.57;;;;;;;17.29;100.00;102176.47;5036096;28;20127;-82
2022/08/12 01:47:05;;;;;;;9.43;7.07;;;;;;;17.26;100.00;102184.69;5036073;28;20082;-82
2022/08/12 01:49:47;;;;;;;9.07;6.30;;;;;;;17.21;100.00;102183.09;5020249;28;20087;-82
2022/08/12 01:52:42;;;;;;;9.10;6.88;;;;;;;17.19;100.00;102174.28;5019228;28;20076;-82
2022/08/12 01:55:09;;;;;;;8.52;6.50;;;;;;;17.15;100.00;102175.38;5036494;28;20032;-82
2022/08/12 01:57:46;;;;;;;9.77;6.93;;;;;;;17.14;100.00;102176.34;5007942;28;20021;-82
2022/08/12 02:00:17;;;;;;;9.73;6.85;;;;;;;17.12;100.00;102177.34;5001492;28;20608;-82
2022/08/12 02:03:08;;;;;;;10.68;7.57;;;;;;;17.06;100.00;102174.03;5005828;28;20034;-82
2022/08/12 02:11:56;;;;;;;9.60;6.95;;;;;;;16.94;100.00;102164.81;5017608;28;20045;-82
2022/08/12 02:14:50;;;;;;;11.60;7.55;;;;;;;16.95;100.00;102163.03;5018902;28;20040;-81
2022/08/12 02:17:28;;;;;;;9.73;7.63;;;;;;;16.95;100.00;102158.53;5008053;28;20038;-81
2022/08/12 02:20:31;;;;;;;9.27;7.20;;;;;;;16.99;100.00;102153.03;5011825;28;20041;-81
2022/08/12 02:22:57;;;;;;;;;;;;;;;17.00;100.00;102154.75;5000547;28;20044;-82
2022/08/12 02:25:36;;;;;;;9.52;6.95;;;;;;;16.95;100.00;102153.19;4998057;28;19988;-82
2022/08/12 02:28:03;;;;;;;9.88;7.18;;;;;;;16.94;100.00;102151.44;5007121;28;20270;-82
2022/08/12 02:30:31;;;;;;;9.50;6.70;;;;;;;16.92;100.00;102148.00;5015766;28;20620;-82
2022/08/12 02:33:03;;;;;;;12.70;7.65;;;;;;;16.90;100.00;102147.22;4994890;28;20189;-82
2022/08/12 02:35:30;;;;;;;11.80;7.53;;;;;;;16.91;100.00;102142.72;5001095;28;20037;-82
2022/08/12 02:37:58;;;;;;;13.77;7.65;;;;;;;16.91;100.00;102143.59;5016400;28;20029;-82
2022/08/12 02:40:26;;;;;;;10.82;7.60;;;;;;;16.90;100.00;102136.53;5017202;28;20057;-82
2022/08/12 02:43:16;;;;;;;9.10;6.95;;;;;;;16.91;100.00;102138.25;4974824;28;20035;-82
2022/08/12 02:45:56;;;;;;;12.23;7.40;;;;;;;16.89;100.00;102144.63;4976341;28;20547;-81
2022/08/12 02:48:29;;;;;;;11.07;7.13;;;;;;;16.89;100.00;102147.28;5013049;28;20034;-82
2022/08/12 02:50:55;;;;;;;;;;;;;;;16.88;100.00;102146.41;5005007;28;20042;-82
2022/08/12 02:53:21;;;;;;;9.13;7.22;;;;;;;16.86;100.00;102140.28;5019225;28;19925;-81
2022/08/12 02:55:47;;;;;;;10.02;7.10;;;;;;;16.86;100.00;102148.31;5004290;28;20033;-82
2022/08/12 02:58:13;;;;;;;12.20;7.82;;;;;;;16.85;100.00;102146.59;5020732;28;20052;-82
2022/08/12 03:00:40;;;;;;;11.25;8.15;;;;;;;16.84;100.00;102142.19;5006235;28;20038;-82
2022/08/12 03:03:08;;;;;;;12.90;8.02;;;;;;;16.82;100.00;102138.72;5019640;28;20044;-82
2022/08/12 03:05:40;;;;;;;11.88;8.15;;;;;;;16.79;100.00;102136.22;4995083;28;20214;-84
2022/08/12 03:08:08;;;;;;;9.85;7.30;;;;;;;16.82;100.00;102128.00;5017049;28;20033;-83
2022/08/12 03:10:40;;;;;;;11.23;7.35;;;;;;;16.82;100.00;102133.34;5017333;28;20055;-83
2022/08/12 03:13:10;;;;;;;12.98;8.45;;;;;;;16.82;100.00;102128.88;5021923;28;20434;-82
2022/08/12 03:15:36;;;;;;;12.77;8.80;;;;;;;16.83;100.00;102129.75;5020337;28;20033;-81
2022/08/12 03:18:08;;;;;;;11.93;8.25;;;;;;;16.84;100.00;102121.66;5016416;28;20045;-81
2022/08/12 03:20:39;;;;;;;10.20;8.30;;;;;;;16.84;100.00;102123.47;5019544;28;20041;-81
2022/08/12 03:23:10;;;;;;;10.77;8.25;;;;;;;16.87;100.00;102114.41;5019939;28;20327;-80
2022/08/12 03:25:38;;;;;;;11.23;8.25;;;;;;;16.86;100.00;102126.03;5020816;28;20069;-81
2022/08/12 03:28:10;;;;;;;11.32;7.85;;;;;;;16.84;100.00;102120.78;5019867;28;20034;-81
2022/08/12 03:30:38;;;;;;;11.55;7.57;;;;;;;16.84;100.00;102113.63;5019900;28;20037;-81
2022/08/12 03:33:04;;;;;;;10.48;7.93;;;;;;;16.88;100.00;102110.81;5021253;28;20036;-80
2022/08/12 03:35:34;;;;;;;11.70;8.43;;;;;;;16.89;100.00;102115.19;5020741;28;20043;-80
2022/08/12 03:38:05;;;;;;;10.32;7.85;;;;;;;16.95;100.00;102118.41;5019737;28;21470;-82
2022/08/12 04:00:23;;;;;;;9.95;6.28;;;;;;;17.24;100.00;102110.69;5020380;28;20641;-80
2022/08/12 04:03:00;;;;;;;8.52;6.18;;;;;;;17.28;100.00;102113.19;5020584;28;20394;-80
2022/08/12 04:05:27;;;;;;;10.43;6.57;;;;;;;17.28;100.00;102102.50;5020216;28;20029;-80
2022/08/12 04:07:54;;;;;;;9.70;6.47;;;;;;;17.29;100.00;102109.56;5020653;28;20502;-80
2022/08/12 04:10:19;;;;;;;8.63;6.75;;;;;;;17.29;100.00;102115.78;5003948;28;20045;-80
2022/08/12 04:15:44;;;;;;;8.93;6.50;;;;;;;17.28;100.00;102113.19;5019264;28;20078;-80
2022/08/12 04:18:14;;;;;;;7.85;6.30;;;;;;;17.28;100.00;102119.44;5000298;28;20097;-80
2022/08/12 04:20:46;;;;;;;9.38;6.35;;;;;;;17.28;100.00;102115.88;5020149;28;20048;-80
2022/08/12 04:23:14;;;;;;;8.03;6.00;;;;;;;17.29;100.00;102117.59;5018581;28;20435;-80
2022/08/12 04:25:42;;;;;;;9.25;6.00;;;;;;;17.29;100.00;102112.25;5021724;28;20712;-80
2022/08/12 04:28:09;;;;;;;8.95;6.45;;;;;;;17.29;100.00;102110.44;5019769;28;20043;-80
2022/08/12 04:30:39;;;;;;;10.05;6.40;;;;;;;17.29;100.00;102109.56;5020395;28;20048;-80
2022/08/12 04:33:11;;;;;;;9.57;6.50;;;;;;;17.29;100.00;102104.22;5021436;28;20075;-80
2022/08/12 04:35:36;;;;;;;10.20;6.50;;;;;;;17.29;100.00;102109.56;5000264;28;20029;-80
2022/08/12 04:38:04;;;;;;;8.35;5.90;;;;;;;17.30;100.00;102105.94;5000652;28;20067;-80
2022/08/12 04:40:35;;;;;;;6.72;5.30;;;;;;;17.31;100.00;102103.19;5018459;28;20034;-80
2022/08/12 04:43:01;;;;;;;6.57;5.07;;;;;;;17.34;100.00;102103.00;4986230;28;20030;-80
2022/08/12 04:45:27;;;;;;;8.07;5.60;;;;;;;17.36;100.00;102105.59;5000151;28;20039;-80
2022/08/12 04:47:52;;;;;;;7.65;5.53;;;;;;;17.36;100.00;102097.56;5019024;28;20033;-80
2022/08/12 04:50:19;;;;;;;6.78;5.20;;;;;;;17.38;100.00;102093.03;4983542;28;20063;-80
2022/08/12 04:52:44;;;;;;;6.97;4.72;;;;;;;17.37;100.00;102100.19;4976999;28;20067;-80
2022/08/12 04:55:11;;;;;;;6.53;4.45;;;;;;;17.38;100.00;102093.03;5021069;28;20095;-80
2022/08/12 04:57:37;;;;;;;7.18;4.95;;;;;;;17.40;100.00;102095.59;5019660;28;20034;-80
2022/08/12 05:00:11;;;;;;;6.22;5.03;;;;;;;17.40;100.00;102098.28;5011610;28;20103;-79
2022/08/12 05:02:37;;;;;;;6.95;4.85;;;;;;;17.42;100.00;102099.06;5017123;28;20092;-80
2022/08/12 05:05:03;;;;;;;7.07;4.75;;;;;;;17.39;100.00;102094.75;5019173;28;22129;-80
2022/08/12 05:07:29;;;;;;;7.38;4.90;;;;;;;17.39;100.00;102092.06;5018354;28;20497;-80
2022/08/12 05:09:55;;;;;;;7.03;4.55;;;;;;;17.40;100.00;102095.59;5016793;28;20034;-80
2022/08/12 05:12:22;;;;;;;6.05;4.82;;;;;;;17.40;100.00;102093.78;5018427;28;20113;-80
2022/08/12 05:14:49;;;;;;;6.95;4.60;;;;;;;17.40;100.00;102091.13;5020276;28;20107;-80
2022/08/12 05:17:15;;;;;;;8.07;4.78;;;;;;;17.43;100.00;102090.09;4992140;28;20033;-80
2022/08/12 05:19:41;;;;;;;7.20;4.93;;;;;;;17.45;100.00;102089.06;5018321;28;20025;-80
2022/08/12 05:22:08;;;;;;;6.90;5.03;;;;;;;17.47;100.00;102087.16;5004394;28;20033;-80
2022/08/12 05:24:33;;;;;;;6.90;4.90;;;;;;;17.50;100.00;102086.97;5021713;28;20067;-80
2022/08/12 05:26:59;;;;;;;5.85;4.38;;;;;;;17.54;100.00;102092.19;5004217;28;20025;-80
2022/08/12 05:29:28;;;;;;;7.05;4.65;;;;;;;17.57;100.00;102100.91;5016633;28;20135;-80
2022/08/12 05:31:55;;;;;;;6.78;4.97;;;;;;;17.62;100.00;102103.31;5018640;28;20045;-80
2022/08/12 05:34:21;;;;;;;6.78;4.72;;;;;;;17.67;100.00;102106.59;5019005;28;20041;-81
2022/08/12 05:36:47;;;;;;;6.13;4.60;;;;;;;17.73;100.00;102108.06;5018044;28;20443;-81
2022/08/12 05:39:12;;;;;;;6.40;4.47;;;;;;;17.78;100.00;102106.84;5018242;28;20087;-81
2022/08/12 05:41:38;;;;;;;6.07;4.57;;;;;;;17.86;100.00;102105.59;5019712;28;20503;-81
2022/08/12 05:44:12;;;;;;;8.50;4.50;;;;;;;17.94;100.00;102100.66;5015981;28;20036;-81
2022/08/12 05:46:37;;;;;;;6.75;4.47;;;;;;;18.01;100.00;102098.47;5001883;28;20132;-80
2022/08/12 05:49:04;;;;;;;7.78;5.18;;;;;;;18.07;100.00;102105.34;5020433;28;20038;-81
2022/08/12 05:51:32;;;;;;;6.53;4.65;;;;;;;18.15;100.00;102100.41;5017657;28;20021;-81
2022/08/12 05:53:58;;;;;;;5.70;4.13;;;;;;;18.21;100.00;102102.72;5018768;28;20360;-81
2022/08/12 05:56:30;;;;;;;6.53;4.00;;;;;;;18.28;100.00;102106.78;5016947;28;20762;-81
2022/08/12 05:58:58;;;;;;;5.07;4.40;;;;;;;18.37;100.00;102109.88;5017923;28;20419;-81
2022/08/12 06:01:25;;;;;;;5.53;4.35;;;;;;;18.46;100.00;102112.00;4981682;28;20563;-82
2022/08/12 06:03:52;;;;;;;6.15;4.22;;;;;;;18.68;100.00;102116.09;5018680;28;20042;-81
2022/08/12 06:06:18;;;;;;;6.45;4.25;;;;;;;18.91;100.00;102103.94;5015258;28;20026;-81
2022/08/12 06:08:47;;;;;;;5.43;3.92;;;;;;;19.16;100.00;102115.06;5017625;28;20487;-82
2022/08/12 06:11:17;;;;;;;6.55;4.30;;;;;;;19.37;100.00;102111.03;4984557;28;20029;-82
2022/08/12 06:13:44;;;;;;;5.93;4.18;;;;;;;19.57;100.00;102108.91;5016453;28;20124;-82
2022/08/12 06:16:13;;;;;;;4.22;3.50;;;;;;;19.78;100.00;102105.78;5018961;28;20033;-82
2022/08/12 06:18:42;;;;;;;4.93;3.72;;;;;;;19.97;100.00;102115.34;5018360;28;20385;-82
2022/08/12 06:21:12;;;;;;;4.82;3.85;;;;;;;20.15;100.00;102111.44;5022187;28;20037;-81
2022/08/12 06:23:39;;;;;;;4.40;3.42;;;;;;;20.31;100.00;102107.72;5022069;28;20049;-82
2022/08/12 06:26:10;;;;;;;3.92;3.42;;;;;;;20.43;100.00;102114.97;5020696;28;20043;-82
2022/08/12 06:28:42;;;;;;;5.78;3.70;;;;;;;20.54;100.00;102113.41;5003592;28;20064;-81
2022/08/12 06:31:14;;;;;;;5.07;3.70;;;;;;;20.65;99.30;102118.03;5021800;28;20028;-81
2022/08/12 06:33:43;;;;;;;4.57;3.17;;;;;;;20.75;99.17;102119.97;5025079;28;20424;-82
2022/08/12 06:36:10;;;;;;;4.90;3.35;;;;;;;20.86;98.27;102115.75;5020610;28;20509;-82
2022/08/12 06:38:38;;;;;;;4.40;3.30;;;;;;;21.00;97.98;102115.63;5023835;28;20044;-81
2022/08/12 06:43:52;;;;;;;4.70;3.92;;;;;;;21.21;96.60;102116.91;5021137;28;20040;-81
2022/08/12 06:46:20;;;;;;;4.60;3.55;;;;;;;21.32;96.39;102116.13;5019637;28;20194;-81
2022/08/12 06:48:47;;;;;;;5.72;3.53;;;;;;;21.46;96.03;102113.31;5017324;28;20024;-82
2022/08/12 06:51:12;;;;;;;4.15;3.30;;;;;;;21.60;95.55;102103.38;5018459;28;20120;-82
2022/08/12 06:53:38;;;;;;;4.32;3.40;;;;;;;21.69;94.78;102095.50;5012501;28;20048;-82
2022/08/12 06:56:05;;;;;;;4.70;3.28;;;;;;;21.86;94.41;102100.63;5017314;28;20049;-82
2022/08/12 06:58:31;;;;;;;4.28;3.63;;;;;;;22.05;94.01;102097.44;5019502;28;20610;-86
2022/08/12 07:00:57;;;;;;;4.90;3.35;;;;;;;22.17;92.82;102101.88;4999140;28;20038;-96
2022/08/12 07:03:28;;;;;;;3.78;2.97;;;;;;;22.29;92.20;102102.81;5031088;28;20024;-90
2022/08/12 07:06:05;;;;;;;4.28;3.08;;;;;;;22.43;91.25;102098.22;5032821;28;20048;-92
2022/08/12 07:08:32;;;;;;;3.83;3.15;;;;;;;22.57;90.98;102099.84;5038867;28;20036;-96
2022/08/12 07:11:03;;;;;;;3.70;3.10;;;;;;;22.77;91.01;102107.25;5032786;28;20052;-94
2022/08/12 07:13:37;;;;;;;3.90;3.15;;;;;;;22.97;89.80;102101.28;5031022;28;20033;-91
2022/08/12 07:16:04;;;;;;;3.35;2.92;;;;;;;23.08;88.95;102098.59;5029863;28;20036;-94
2022/08/12 07:18:32;;;;;;;5.13;3.08;;;;;;;23.23;88.39;102095.66;5034164;28;20026;-95
2022/08/12 07:21:01;;;;;;;4.32;3.38;;;;;;;23.25;86.72;102096.41;4997109;28;20120;-90
2022/08/12 07:23:27;;;;;;;3.95;3.00;;;;;;;23.27;86.49;102100.66;5027835;28;20025;-91
2022/08/12 07:25:53;;;;;;;5.13;3.10;;;;;;;23.33;86.13;102104.78;5018106;28;20097;-92
2022/08/12 07:28:22;;;;;;;5.63;2.80;;;;;;;23.37;86.04;102095.41;5035736;28;20036;-88
2022/08/12 07:30:49;;;;;;;4.90;3.10;;;;;;;23.48;85.50;102099.09;5027934;28;20345;-88
2022/08/12 07:33:18;;;;;;;3.47;2.63;;;;;;;23.63;85.12;102095.16;5033885;28;20124;-88
2022/08/12 07:35:44;;;;;;;3.47;2.58;;;;;;;23.66;84.19;102092.22;5022070;28;20026;-91
2022/08/12 07:38:30;;;;;;;2.83;2.45;;;;;;;23.81;81.09;102108.16;5025474;28;20116;-90
2022/08/12 07:41:00;;;;;;;4.82;2.60;;;;;;;23.86;82.13;102103.22;5020457;28;20424;-90
2022/08/12 07:43:29;;;;;;;3.20;2.55;;;;;;;23.98;82.08;102107.59;5024508;28;20037;-94
2022/08/12 07:45:57;;;;;;;3.25;2.05;;;;;;;24.05;81.59;102102.53;5009511;28;20449;-93
2022/08/12 07:48:23;;;;;;;4.55;2.88;;;;;;;24.14;81.00;102101.78;5025117;28;20033;-92
2022/08/12 07:50:50;;;;;;;2.92;2.22;;;;;;;24.31;80.56;102093.25;5009298;28;20447;-91
2022/08/12 07:53:16;;;;;;;2.90;2.33;;;;;;;24.42;80.45;102099.44;5018689;28;20200;-83
2022/08/12 07:55:44;;;;;;;3.58;2.50;;;;;;;24.55;79.88;102098.41;5002846;28;20084;-84
2022/08/12 07:58:10;;;;;;;2.50;2.25;;;;;;;24.66;78.61;102100.19;4962590;28;1188944;-83
2022/08/12 08:00:39;;;;;;;2.60;2.35;;;;;;;24.80;77.75;102094.44;5035240;28;20060;-84
2022/08/12 08:03:07;;;;;;;3.83;2.33;;;;;;;24.95;77.76;102100.38;5007062;28;20044;-83
2022/08/12 08:05:38;;;;;;;4.85;2.55;;;;;;;25.12;77.57;102102.59;5041407;28;20040;-83
2022/08/12 08:08:18;;;;;;;3.35;2.50;;;;;;;25.23;75.03;102105.22;5025318;28;20041;-83
2022/08/12 08:10:45;;;;;;;2.92;2.30;;;;;;;25.41;76.40;102102.72;5038128;28;20029;-82
2022/08/12 08:13:11;;;;;;;2.80;2.20;;;;;;;25.57;75.91;102104.06;5040490;28;20039;-82
2022/08/12 08:15:38;;;;;;;2.55;2.35;;;;;;;25.68;75.61;102105.81;5039693;28;20573;-82
2022/08/12 08:18:07;;;;;;;3.88;2.35;;;;;;;25.82;75.10;102102.69;5023086;28;20037;-83
2022/08/12 08:20:39;;;;;;;2.80;1.85;;;;;;;25.96;74.33;102114.13;5042679;28;20511;-82
2022/08/12 08:23:14;;;;;;;2.35;2.15;;;;;;;26.03;73.40;102110.72;5023421;28;20116;-83
2022/08/12 08:25:46;;;;;;;3.40;2.53;;;;;;;26.10;72.86;102111.00;5039748;28;20117;-83
2022/08/12 08:28:18;;;;;;;2.40;2.00;;;;;;;26.24;72.21;102117.03;5040789;28;20523;-82
2022/08/12 08:30:46;;;;;;;4.15;2.40;;;;;;;26.29;71.43;102115.63;5040365;28;20172;-82
2022/08/12 08:33:14;;;;;;;2.85;2.42;;;;;;;26.37;71.23;102106.72;5037725;28;20068;-82
2022/08/12 08:35:41;;;;;;;2.90;2.20;;;;;;;26.47;70.72;102104.00;5026701;28;20111;-83
2022/08/12 08:38:14;;;;;;;2.40;2.20;;;;;;;26.64;69.88;102102.41;5037391;28;20652;-83
2022/08/12 08:43:26;;;;;;;1.92;1.73;;;;;;;26.96;68.21;102101.22;5039546;28;20064;-84
2022/08/12 08:45:57;;;;;;;3.15;1.95;;;;;;;27.11;67.14;102098.03;5040490;28;20104;-83
2022/08/12 08:48:23;;;;;;;2.00;1.80;;;;;;;27.23;66.80;102096.81;5040191;28;20037;-83
2022/08/12 08:50:49;;;;;;;2.50;1.90;;;;;;;27.45;66.34;102096.59;5038813;28;20037;-84
2022/08/12 08:53:15;;;;;;;5.07;1.77;;;;;;;27.56;65.86;102109.94;5040103;28;20429;-83
2022/08/12 08:55:42;;;;;;;2.42;1.90;;;;;;;27.61;65.47;102098.69;5024141;28;20118;-83
2022/08/12 08:58:08;;;;;;;1.75;1.65;;;;;;;27.68;65.50;102098.91;5020652;28;20415;-83
2022/08/12 09:00:41;;;;;;;2.45;1.73;;;;;;;27.85;65.56;102103.53;5018840;28;20033;-82
2022/08/12 09:03:07;;;;;;;2.53;1.70;;;;;;;27.96;65.04;102090.69;5038615;28;20062;-83
2022/08/12 09:05:33;;;;;;;2.15;1.70;;;;;;;28.01;64.93;102086.50;4991551;28;20461;-83
2022/08/12 09:08:03;;;;;;;2.30;1.73;;;;;;;28.12;63.92;102087.25;5038832;28;20033;-83
2022/08/12 09:10:29;;;;;;;2.42;1.90;;;;;;;28.21;63.77;102089.06;5039047;28;20036;-83
2022/08/12 09:15:42;;;;;;;1.90;1.80;;;;;;;28.43;63.51;102092.31;5037178;28;20096;-83
2022/08/12 09:18:09;;;;;;;2.25;1.67;;;;;;;28.38;63.64;102086.50;5023256;28;20032;-83
2022/08/12 09:20:37;;;;;;;2.35;1.88;;;;;;;28.42;64.19;102096.91;5016308;28;20048;-83
2022/08/12 09:23:13;;;;;;;2.10;1.90;;;;;;;28.50;63.89;102087.94;5028625;28;20045;-83
2022/08/12 09:25:47;;;;;;;2.20;1.80;;;;;;;28.60;63.96;102091.41;5030559;28;20472;-83
2022/08/12 09:28:13;;;;;;;2.03;1.75;;;;;;;28.60;63.27;102087.84;5028301;28;20029;-84
2022/08/12 09:30:45;;;;;;;1.70;1.60;;;;;;;28.60;63.06;102088.69;4992551;28;20038;-83
2022/08/12 09:33:13;;;;;;;3.65;1.70;;;;;;;28.70;62.90;102082.28;5025475;28;20029;-83
2022/08/12 09:35:46;;;;;;;2.05;1.70;;;;;;;28.84;62.98;102086.28;5022029;28;20408;-84
2022/08/12 09:38:16;;;;;;;1.80;1.70;;;;;;;28.87;62.28;102089.56;5038378;28;20029;-84
2022/08/12 09:40:43;;;;;;;2.80;1.83;;;;;;;28.92;61.38;102085.50;5037668;28;20033;-84
2022/08/12 09:45:53;;;;;;;1.85;1.73;;;;;;;28.98;59.33;102090.31;5038643;28;20115;-83
2022/08/12 09:48:19;;;;;;;1.80;1.60;;;;;;;29.00;59.51;102088.28;5021619;28;20062;-84
2022/08/12 09:50:46;;;;;;;1.80;1.70;;;;;;;29.05;57.76;102085.91;5035931;28;20040;-83
2022/08/12 09:53:17;;;;;;;2.05;1.85;;;;;;;29.05;57.35;102094.09;5029603;28;20033;-82
2022/08/12 09:55:46;;;;;;;3.03;1.70;;;;;;;29.08;57.66;102088.31;4993106;28;20388;-82
2022/08/12 09:58:15;;;;;;;1.80;1.70;;;;;;;29.09;56.38;102079.09;5017142;28;20114;-82
2022/08/12 10:00:45;;;;;;;2.08;1.65;;;;;;;29.14;55.57;102082.19;5035353;28;20484;-82
2022/08/12 10:03:14;;;;;;;3.42;1.60;;;;;;;29.18;54.97;102079.16;5015338;28;20064;-81
2022/08/12 10:05:46;;;;;;;2.10;1.90;;;;;;;29.18;54.17;102079.16;5019609;28;20570;-82
2022/08/12 10:08:16;;;;;;;1.75;1.65;;;;;;;29.20;53.98;102085.31;5040204;28;20044;-82
2022/08/12 10:13:41;;;;;;;2.90;2.00;;;;;;;29.37;52.74;102084.31;5039096;28;20039;-82
2022/08/12 10:16:18;;;;;;;2.60;1.67;;;;;;;29.30;52.75;102077.81;5037491;28;20037;-81
2022/08/12 10:18:47;;;;;;;1.77;1.67;;;;;;;29.35;51.55;102075.47;5014074;28;20025;-83
2022/08/12 10:21:18;;;;;;;2.05;1.85;;;;;;;29.37;51.39;102078.03;5029251;28;20037;-82
2022/08/12 10:23:48;;;;;;;3.08;1.67;;;;;;;29.35;50.46;102069.16;5037034;28;20041;-84
2022/08/12 10:31:52;;;;;;;1.75;1.65;;;;;;;29.04;50.84;102059.69;5026793;28;20036;-83
2022/08/12 10:34:21;;;;;;;1.70;1.60;;;;;;;28.97;50.13;102059.47;5020291;28;20030;-82
2022/08/12 10:36:48;;;;;;;2.17;1.77;;;;;;;28.95;50.16;102052.47;5020485;28;20028;-83
2022/08/12 10:39:16;;;;;;;2.47;1.50;;;;;;;28.99;50.07;102048.41;5026879;28;20029;-84
2022/08/12 10:44:26;;;;;;;2.53;1.65;;;;;;;28.86;49.38;102052.44;5039207;28;20045;-87
2022/08/12 10:46:51;;;;;;;1.98;1.85;;;;;;;28.89;49.32;102042.22;5031348;28;20037;-78
2022/08/12 10:49:26;;;;;;;1.65;1.55;;;;;;;28.89;48.27;102037.63;5014152;28;20053;-78
2022/08/12 10:51:55;;;;;;;1.67;1.58;;;;;;;28.85;48.26;102036.25;5037244;28;20143;-81
2022/08/12 10:54:21;;;;;;;2.28;1.70;;;;;;;28.78;48.16;102035.16;5021990;28;20100;-77
2022/08/12 10:56:48;;;;;;;1.67;1.58;;;;;;;28.71;47.93;102032.25;5033876;28;20032;-79
2022/08/12 10:59:20;;;;;;;3.03;2.10;;;;;;;28.68;47.06;102029.81;5020641;28;20084;-80
2022/08/12 11:01:47;;;;;;;3.28;1.80;;;;;;;28.66;48.09;102026.41;5011027;28;20029;-80
2022/08/12 11:04:13;;;;;;;2.53;1.90;;;;;;;28.68;47.92;102024.38;5010217;28;20415;-80
2022/08/12 11:06:43;;;;;;;2.33;1.83;;;;;;;28.78;48.02;102027.84;5012608;28;20029;-81
2022/08/12 11:09:11;;;;;;;2.28;1.80;;;;;;;28.82;47.45;102021.03;5017299;28;20136;-79
2022/08/12 11:11:37;;;;;;;2.17;1.73;;;;;;;28.81;47.42;102010.31;5014836;28;20071;-81
2022/08/12 11:14:03;;;;;;;1.63;1.45;;;;;;;28.80;47.33;102011.34;5006387;28;20116;-78
2022/08/12 11:16:31;;;;;;;1.67;1.52;;;;;;;28.80;46.95;102009.47;5011721;28;20083;-90
2022/08/12 11:18:56;;;;;;;1.80;1.52;;;;;;;28.88;46.77;102008.69;5013438;28;20026;-80
2022/08/12 11:21:22;;;;;;;1.98;1.63;;;;;;;28.90;46.28;102005.78;5013831;28;21466;-80
2022/08/12 11:23:48;;;;;;;2.80;1.70;;;;;;;28.88;46.25;102003.25;5021104;28;21410;-80
2022/08/12 11:26:13;;;;;;;1.80;1.70;;;;;;;28.90;45.89;101994.88;5012285;28;20057;-80
2022/08/12 11:28:38;;;;;;;1.75;1.65;;;;;;;28.90;45.38;102001.19;5017966;28;20029;-80
2022/08/12 11:31:07;;;;;;;1.85;1.70;;;;;;;28.89;45.23;101995.91;5012904;28;20033;-79
2022/08/12 11:33:32;;;;;;;2.00;1.80;;;;;;;28.91;45.78;101991.16;5018473;28;20200;-79
2022/08/12 11:36:08;;;;;;;4.22;1.90;;;;;;;28.94;44.81;101990.81;5017132;28;20033;-79
2022/08/12 11:38:34;;;;;;;3.38;1.67;;;;;;;28.98;45.17;101993.03;5016815;28;20033;-79
2022/08/12 11:41:02;;;;;;;1.33;1.23;;;;;;;28.96;45.47;101984.19;5017547;28;20037;-79
2022/08/12 11:43:28;;;;;;;1.70;1.60;;;;;;;28.93;45.06;101986.41;5016650;28;20029;-79
2022/08/12 11:45:53;;;;;;;1.67;1.58;;;;;;;28.93;44.76;101986.41;5021425;28;20048;-77
2022/08/12 11:48:19;;;;;;;2.13;1.60;;;;;;;28.92;44.59;101990.97;5015158;28;20461;-78
2022/08/12 11:50:45;;;;;;;2.25;1.77;;;;;;;28.91;44.54;101978.38;5015274;28;20461;-77
2022/08/12 11:53:10;;;;;;;1.67;1.42;;;;;;;28.95;44.70;101976.19;5016547;28;20029;-77
2022/08/12 11:55:39;;;;;;;1.80;1.70;;;;;;;28.97;44.24;101968.72;5026450;28;20518;-78
2022/08/12 11:58:04;;;;;;;1.95;1.70;;;;;;;29.02;44.24;101971.78;5015166;28;20144;-77
2022/08/12 12:00:30;;;;;;;2.00;1.83;;;;;;;29.09;43.99;101967.34;5024931;28;20024;-77
2022/08/12 12:02:55;;;;;;;2.10;1.60;;;;;;;29.06;44.01;101961.38;5033096;28;20051;-77
2022/08/12 12:05:21;;;;;;;1.60;1.50;;;;;;;28.98;43.80;101956.78;5030972;28;20028;-78
2022/08/12 12:07:46;;;;;;;1.83;1.40;;;;;;;28.94;43.72;101953.53;5033514;28;20037;-77
2022/08/12 12:10:15;;;;;;;1.63;1.52;;;;;;;28.96;43.70;101959.66;5017125;28;20060;-77
2022/08/12 12:12:41;;;;;;;1.55;1.45;;;;;;;29.04;43.80;101952.53;5030461;28;20736;-78
2022/08/12 12:15:07;;;;;;;1.92;1.60;;;;;;;29.05;43.19;101949.66;5012378;28;21568;-77
2022/08/12 12:17:35;;;;;;;1.58;1.42;;;;;;;29.05;42.99;101949.66;5012547;28;20025;-77
2022/08/12 12:20:02;;;;;;;3.22;1.65;;;;;;;28.99;42.87;101955.75;5018070;28;20619;-77
2022/08/12 12:22:28;;;;;;;1.45;1.35;;;;;;;29.00;42.30;101941.97;5015121;28;20064;-77
2022/08/12 12:24:53;;;;;;;3.05;2.10;;;;;;;29.00;42.16;101952.00;5030874;28;20484;-77
2022/08/12 12:27:19;;;;;;;3.58;1.42;;;;;;;28.99;42.54;101942.13;5030639;28;20488;-76
2022/08/12 12:29:45;;;;;;;2.33;1.50;;;;;;;28.95;42.03;101943.47;5025694;28;20025;-77
2022/08/12 12:32:11;;;;;;;2.70;1.58;;;;;;;28.90;42.50;101948.56;5028781;28;20058;-76
2022/08/12 12:34:37;;;;;;;1.60;1.50;;;;;;;28.94;42.46;101947.22;5010953;28;20040;-76
2022/08/12 12:37:03;;;;;;;1.70;1.40;;;;;;;28.97;42.33;101931.41;5030325;28;20570;-77
2022/08/12 12:39:28;;;;;;;1.80;1.70;;;;;;;28.97;41.85;101936.00;5028801;28;20021;-77
2022/08/12 12:41:54;;;;;;;1.67;1.58;;;;;;;28.94;41.93;101930.88;5029766;28;20103;-76
2022/08/12 12:44:19;;;;;;;1.75;1.60;;;;;;;28.91;41.79;101933.94;5030832;28;20391;-75
2022/08/12 12:46:45;;;;;;;1.40;1.30;;;;;;;28.92;41.98;101931.03;5028799;28;20037;-75
2022/08/12 12:49:10;;;;;;;1.45;1.30;;;;;;;28.94;42.09;101930.88;5032222;28;20510;-75
2022/08/12 12:51:36;;;;;;;2.03;1.40;;;;;;;28.91;41.79;101942.97;5026780;28;20040;-76
2022/08/12 12:54:01;;;;;;;1.60;1.50;;;;;;;28.89;41.72;101939.56;5031079;28;20021;-76
2022/08/12 12:56:27;;;;;;;1.60;1.40;;;;;;;28.91;41.86;101932.06;5024054;28;20021;-76
2022/08/12 12:58:53;;;;;;;1.83;1.70;;;;;;;28.92;41.74;101924.75;5026048;28;20045;-76
2022/08/12 13:01:24;;;;;;;1.58;1.40;;;;;;;28.90;41.68;101924.03;5013925;28;20033;-75
2022/08/12 13:03:53;;;;;;;2.05;1.48;;;;;;;28.94;41.51;101925.44;5018431;28;20040;-75
2022/08/12 13:06:24;;;;;;;1.45;1.35;;;;;;;29.00;40.59;101922.03;5016483;28;20025;-76
2022/08/12 13:08:53;;;;;;;1.50;1.40;;;;;;;29.02;40.72;101920.00;5016752;28;20029;-76
2022/08/12 13:11:22;;;;;;;1.60;1.50;;;;;;;29.04;41.13;101926.16;4986673;28;20385;-77
2022/08/12 13:13:52;;;;;;;1.42;1.33;;;;;;;29.08;41.19;101921.22;5015482;28;21460;-75